Time;durP1;ratioP1;P1;durP2;ratioP2;P2;SDS_P1;SDS_P2;PMS_P1;PMS_P2;Temp;Humidity;BMP_temperature;BMP_pressure;BME280_temperature;BME280_humidity;BME280_pressure;Samples;Min_cycle;Max_cycle;Signal;HPM_P1;HPM_P2
2024/01/18 00:01:17;;;;;;;41.53;25.07;;;1.40;90.10;;;;;;5132443;27;20657;-61
2024/01/18 00:03:46;;;;;;;42.43;24.60;;;1.20;91.40;;;;;;5132611;27;20195;-66
2024/01/18 00:06:15;;;;;;;41.87;25.10;;;1.20;92.60;;;;;;5132692;27;20202;-69
2024/01/18 00:08:44;;;;;;;42.83;24.37;;;1.20;92.40;;;;;;5132275;27;20209;-67
2024/01/18 00:11:12;;;;;;;37.97;23.23;;;1.30;93.00;;;;;;5132874;27;20876;-67
2024/01/18 00:13:40;;;;;;;39.87;23.53;;;1.30;92.10;;;;;;5132124;27;20195;-64
2024/01/18 00:16:09;;;;;;;43.43;25.80;;;1.30;91.80;;;;;;5132488;27;20540;-62
2024/01/18 00:18:38;;;;;;;43.17;24.40;;;1.50;91.10;;;;;;5132558;27;20203;-65
2024/01/18 00:21:06;;;;;;;42.40;24.60;;;1.30;91.80;;;;;;5132521;27;20199;-63
2024/01/18 00:23:36;;;;;;;40.87;24.23;;;1.30;91.80;;;;;;5132410;27;20282;-66
2024/01/18 00:26:06;;;;;;;38.60;23.90;;;1.30;92.60;;;;;;5132361;27;20201;-65
2024/01/18 00:28:34;;;;;;;44.13;26.83;;;1.30;92.50;;;;;;5132387;27;20206;-62
2024/01/18 00:31:03;;;;;;;39.73;24.00;;;1.30;92.80;;;;;;5132031;27;20199;-62
2024/01/18 00:33:31;;;;;;;43.67;25.87;;;1.40;93.40;;;;;;5132391;27;20202;-70
2024/01/18 00:36:00;;;;;;;47.77;26.63;;;1.40;92.60;;;;;;5131903;27;20248;-70
2024/01/18 00:38:28;;;;;;;44.03;25.67;;;1.60;91.90;;;;;;5131321;27;20228;-65
2024/01/18 00:40:58;;;;;;;42.77;24.70;;;1.60;90.90;;;;;;5131460;27;20191;-69
2024/01/18 00:43:26;;;;;;;44.17;25.87;;;1.70;91.20;;;;;;5131866;27;20236;-60
2024/01/18 00:45:54;;;;;;;39.00;23.97;;;1.80;90.60;;;;;;5131550;27;20746;-68
2024/01/18 00:48:23;;;;;;;47.07;24.83;;;1.80;91.40;;;;;;5131557;27;20266;-70
2024/01/18 00:50:51;;;;;;;41.80;25.53;;;1.80;92.10;;;;;;5131624;27;20212;-69
2024/01/18 00:53:19;;;;;;;41.20;24.53;;;1.80;91.40;;;;;;5131485;27;20696;-65
2024/01/18 00:55:50;;;;;;;41.97;25.07;;;1.80;90.00;;;;;;5131457;27;20241;-69
2024/01/18 00:58:20;;;;;;;38.43;25.23;;;1.80;89.80;;;;;;5131433;27;20185;-70
2024/01/18 01:00:48;;;;;;;43.07;25.43;;;1.80;90.10;;;;;;5130767;27;20541;-69
2024/01/18 01:03:17;;;;;;;41.33;25.30;;;1.70;89.50;;;;;;5131298;27;20198;-66
2024/01/18 01:05:45;;;;;;;44.03;24.63;;;1.60;90.20;;;;;;5131248;27;20199;-69
2024/01/18 01:08:13;;;;;;;43.37;25.17;;;1.70;90.00;;;;;;5131162;27;20188;-66
2024/01/18 01:10:42;;;;;;;38.63;24.30;;;1.60;90.10;;;;;;5131637;27;20290;-67
2024/01/18 01:13:10;;;;;;;39.13;25.27;;;1.50;90.80;;;;;;5131566;27;20202;-69
2024/01/18 01:15:40;;;;;;;38.77;23.70;;;1.40;92.20;;;;;;5131051;27;20190;-60
2024/01/18 01:18:10;;;;;;;40.77;24.73;;;1.40;91.70;;;;;;5131246;27;20196;-67
2024/01/18 01:20:41;;;;;;;42.00;23.87;;;1.40;91.80;;;;;;5130935;27;21171;-63
2024/01/18 01:23:09;;;;;;;42.70;25.13;;;1.30;92.00;;;;;;5130994;27;20696;-64
2024/01/18 01:25:37;;;;;;;45.60;25.83;;;1.30;93.30;;;;;;5130871;27;20203;-67
2024/01/18 01:28:06;;;;;;;40.47;24.97;;;1.30;93.40;;;;;;5130885;27;20568;-66
2024/01/18 01:30:34;;;;;;;36.50;22.80;;;1.30;93.40;;;;;;5130681;27;20196;-67
2024/01/18 01:33:04;;;;;;;39.43;23.27;;;1.20;93.10;;;;;;5130926;27;20200;-64
2024/01/18 01:35:33;;;;;;;46.67;26.43;;;1.10;93.80;;;;;;5130792;27;20714;-64
2024/01/18 01:38:01;;;;;;;42.93;25.30;;;1.10;94.80;;;;;;5130524;27;20223;-65
2024/01/18 01:40:29;;;;;;;37.37;23.53;;;1.10;94.50;;;;;;5130814;27;20215;-66
2024/01/18 01:42:58;;;;;;;41.03;23.23;;;1.00;94.30;;;;;;5130886;27;20725;-62
2024/01/18 01:45:26;;;;;;;42.57;24.67;;;1.00;95.20;;;;;;5130585;27;20209;-63
2024/01/18 01:47:54;;;;;;;40.17;24.23;;;1.10;94.80;;;;;;5130536;27;20223;-64
2024/01/18 01:50:24;;;;;;;39.33;23.53;;;1.20;94.30;;;;;;5130264;27;20251;-61
2024/01/18 01:52:52;;;;;;;40.17;25.73;;;1.20;94.70;;;;;;5130367;27;20193;-66
2024/01/18 01:55:21;;;;;;;42.43;25.07;;;1.20;94.20;;;;;;5130319;27;20187;-68
2024/01/18 01:57:50;;;;;;;41.30;24.33;;;1.30;94.70;;;;;;5111998;27;20202;-63
2024/01/18 02:00:18;;;;;;;43.57;25.67;;;1.20;93.60;;;;;;5111446;27;20679;-64
2024/01/18 02:02:47;;;;;;;40.37;24.77;;;1.10;93.40;;;;;;5129790;27;20277;-65
2024/01/18 02:05:16;;;;;;;42.43;25.63;;;1.00;94.50;;;;;;5130025;27;20251;-66
2024/01/18 02:07:47;;;;;;;42.07;24.93;;;1.10;94.50;;;;;;5129778;27;20933;-67
2024/01/18 02:10:15;;;;;;;46.73;26.07;;;1.20;94.80;;;;;;5129941;27;20196;-64
2024/01/18 02:12:45;;;;;;;41.17;25.13;;;1.30;94.00;;;;;;5129620;27;20192;-62
2024/01/18 02:15:13;;;;;;;39.40;24.30;;;1.30;93.40;;;;;;5129831;27;20200;-65
2024/01/18 02:17:42;;;;;;;41.93;25.23;;;1.30;93.60;;;;;;5129619;27;20229;-66
2024/01/18 02:20:11;;;;;;;46.63;25.20;;;1.20;93.90;;;;;;5129804;27;20267;-62
2024/01/18 02:22:43;;;;;;;38.13;23.83;;;1.30;94.20;;;;;;5129724;27;20205;-64
2024/01/18 02:25:18;;;;;;;51.20;29.00;;;1.20;93.40;;;;;;5129880;27;20195;-66
2024/01/18 02:27:46;;;;;;;46.23;27.00;;;1.30;94.20;;;;;;5129600;27;20535;-69
2024/01/18 02:30:14;;;;;;;40.23;23.53;;;1.30;93.90;;;;;;5129627;27;20196;-68
2024/01/18 02:32:43;;;;;;;41.90;24.63;;;1.20;94.00;;;;;;5129519;27;20202;-66
2024/01/18 02:35:12;;;;;;;40.40;25.50;;;1.10;94.10;;;;;;5129474;27;20195;-69
2024/01/18 02:37:40;;;;;;;36.37;24.97;;;1.20;95.20;;;;;;5129335;28;20230;-62
2024/01/18 02:40:09;;;;;;;43.63;24.80;;;1.20;94.60;;;;;;5129392;28;20756;-68
2024/01/18 02:42:39;;;;;;;42.43;25.57;;;1.20;94.60;;;;;;5129546;28;20299;-69
2024/01/18 02:45:08;;;;;;;44.57;26.37;;;1.10;94.60;;;;;;5129312;28;20183;-68
2024/01/18 02:47:37;;;;;;;46.43;26.17;;;1.10;95.90;;;;;;5129051;28;20212;-62
2024/01/18 02:50:06;;;;;;;41.03;25.10;;;1.00;95.40;;;;;;5129662;28;20222;-68
2024/01/18 02:52:34;;;;;;;36.97;25.17;;;0.90;95.90;;;;;;5129258;28;20561;-67
2024/01/18 02:55:02;;;;;;;47.67;26.93;;;0.80;96.40;;;;;;5129405;28;20196;-70
2024/01/18 02:57:31;;;;;;;45.10;25.27;;;0.80;96.70;;;;;;5129174;28;20195;-64
2024/01/18 03:00:00;;;;;;;46.50;27.70;;;0.70;97.30;;;;;;5129298;28;20341;-64
2024/01/18 03:02:29;;;;;;;46.17;27.67;;;0.70;97.10;;;;;;5129054;28;20215;-64
2024/01/18 03:04:57;;;;;;;43.57;26.20;;;0.70;97.10;;;;;;5129348;28;20188;-65
2024/01/18 03:07:25;;;;;;;41.10;26.80;;;0.70;96.80;;;;;;5129039;28;20204;-66
2024/01/18 03:09:53;;;;;;;49.23;26.30;;;0.80;96.80;;;;;;5129076;28;20199;-70
2024/01/18 03:12:22;;;;;;;43.90;25.93;;;0.80;95.70;;;;;;5129412;28;20201;-67
2024/01/18 03:14:50;;;;;;;44.37;25.20;;;0.70;97.20;;;;;;5129218;28;20190;-70
2024/01/18 03:17:20;;;;;;;42.87;26.23;;;0.70;97.00;;;;;;5109875;28;20276;-70
2024/01/18 03:19:48;;;;;;;42.53;24.73;;;0.90;96.10;;;;;;5128905;28;20681;-69
2024/01/18 03:22:17;;;;;;;47.10;25.47;;;0.90;95.60;;;;;;5128923;28;20767;-62
2024/01/18 03:24:45;;;;;;;42.23;25.53;;;0.80;96.50;;;;;;5130223;27;20207;-71
2024/01/18 03:27:13;;;;;;;39.47;24.67;;;0.90;95.80;;;;;;5132894;27;20196;-66
2024/01/18 03:29:42;;;;;;;41.00;23.67;;;0.90;95.00;;;;;;5132852;27;20626;-62
2024/01/18 03:32:10;;;;;;;41.30;25.33;;;0.90;95.40;;;;;;5132704;27;20191;-63
2024/01/18 03:34:40;;;;;;;43.20;23.63;;;1.00;94.90;;;;;;5132815;27;20191;-69
2024/01/18 03:37:08;;;;;;;41.67;24.93;;;1.00;94.50;;;;;;5132443;27;20191;-64
2024/01/18 03:39:37;;;;;;;47.03;25.57;;;0.80;95.00;;;;;;5132483;27;20199;-68
2024/01/18 03:42:05;;;;;;;40.90;24.70;;;0.70;95.90;;;;;;5114001;27;20209;-68
2024/01/18 03:44:34;;;;;;;42.47;23.93;;;0.80;96.30;;;;;;5132504;27;20289;-70
2024/01/18 03:47:03;;;;;;;42.00;23.67;;;0.80;96.40;;;;;;5132473;27;20263;-64
2024/01/18 03:49:31;;;;;;;42.97;25.80;;;0.80;96.50;;;;;;5132601;27;20198;-69
2024/01/18 03:52:01;;;;;;;41.33;25.03;;;1.00;95.70;;;;;;5132593;27;20285;-68
2024/01/18 03:54:29;;;;;;;46.73;26.30;;;1.00;95.80;;;;;;5133009;27;20273;-67
2024/01/18 03:56:57;;;;;;;42.57;25.67;;;0.90;96.20;;;;;;5132858;27;20301;-66
2024/01/18 03:59:25;;;;;;;44.30;25.67;;;0.90;96.20;;;;;;5132794;27;20249;-65
2024/01/18 04:01:54;;;;;;;42.07;24.97;;;0.90;95.60;;;;;;5132928;27;20235;-66
2024/01/18 04:04:23;;;;;;;41.47;23.77;;;0.90;96.10;;;;;;5132553;27;20579;-64
2024/01/18 04:06:51;;;;;;;33.90;22.83;;;1.00;96.20;;;;;;5132751;27;20274;-66
2024/01/18 04:09:20;;;;;;;42.20;25.20;;;1.00;96.20;;;;;;5132473;27;20195;-62
2024/01/18 04:11:49;;;;;;;40.17;25.13;;;1.10;96.10;;;;;;5132712;27;20894;-63
2024/01/18 04:14:17;;;;;;;37.37;23.40;;;1.00;96.80;;;;;;5132561;27;20188;-67
2024/01/18 04:16:46;;;;;;;42.37;25.30;;;1.10;97.20;;;;;;5131897;27;20206;-63
2024/01/18 04:19:14;;;;;;;40.00;25.17;;;1.10;97.00;;;;;;5132390;27;20199;-65
2024/01/18 04:21:43;;;;;;;42.00;24.47;;;1.10;97.30;;;;;;5131861;27;20707;-65
2024/01/18 04:24:11;;;;;;;41.10;25.47;;;1.10;97.60;;;;;;5132348;27;20715;-63
2024/01/18 04:26:41;;;;;;;40.10;24.70;;;1.00;97.90;;;;;;5132176;27;20205;-65
2024/01/18 04:29:09;;;;;;;43.93;25.97;;;1.10;98.30;;;;;;5132257;27;20549;-64
2024/01/18 04:31:38;;;;;;;46.13;25.20;;;0.90;99.50;;;;;;5132242;27;20903;-66
2024/01/18 04:34:06;;;;;;;47.67;26.07;;;1.00;99.80;;;;;;5131804;27;20230;-65
2024/01/18 04:36:34;;;;;;;39.77;25.87;;;1.00;99.40;;;;;;5131996;27;20195;-66
2024/01/18 04:39:02;;;;;;;45.70;26.57;;;1.00;99.20;;;;;;5131287;27;20313;-65
2024/01/18 04:41:31;;;;;;;39.90;24.87;;;1.00;99.00;;;;;;5131748;27;20696;-63
2024/01/18 04:44:01;;;;;;;40.40;25.93;;;1.10;98.80;;;;;;5131715;27;20191;-65
2024/01/18 04:46:30;;;;;;;45.37;26.53;;;1.10;99.40;;;;;;5131376;27;20202;-64
2024/01/18 04:48:58;;;;;;;37.13;23.53;;;1.00;99.50;;;;;;5130621;27;20303;-65
2024/01/18 04:51:27;;;;;;;42.57;24.37;;;1.10;99.00;;;;;;5130609;27;20219;-65
2024/01/18 04:53:56;;;;;;;39.00;23.70;;;1.20;99.40;;;;;;5130817;27;20206;-62
2024/01/18 04:56:24;;;;;;;37.77;24.20;;;1.20;99.30;;;;;;5130709;27;20732;-64
2024/01/18 04:58:53;;;;;;;38.67;23.70;;;1.20;99.00;;;;;;5130765;27;20199;-63
2024/01/18 05:01:22;;;;;;;40.53;24.43;;;1.10;99.90;;;;;;5130657;27;20211;-63
2024/01/18 05:03:51;;;;;;;42.40;23.93;;;1.00;99.90;;;;;;5130442;27;20226;-63
2024/01/18 05:06:19;;;;;;;39.87;24.93;;;1.10;99.90;;;;;;5130401;27;20617;-62
2024/01/18 05:08:48;;;;;;;41.67;24.63;;;1.10;99.90;;;;;;5129911;27;20285;-64
2024/01/18 05:11:16;;;;;;;40.47;25.50;;;1.00;99.90;;;;;;5130644;27;20200;-67
2024/01/18 05:13:44;;;;;;;37.77;23.67;;;0.90;99.90;;;;;;5130521;27;20227;-65
2024/01/18 05:16:13;;;;;;;39.60;24.97;;;0.90;99.90;;;;;;5130851;27;20958;-65
2024/01/18 05:18:43;;;;;;;38.23;24.33;;;1.00;99.90;;;;;;5130900;27;20214;-64
2024/01/18 05:21:11;;;;;;;38.43;24.17;;;0.90;99.90;;;;;;5130706;27;20707;-64
2024/01/18 05:23:40;;;;;;;41.77;25.43;;;0.90;99.90;;;;;;5130589;27;20287;-64
2024/01/18 05:26:08;;;;;;;37.07;23.47;;;1.00;99.90;;;;;;5130549;27;20277;-63
2024/01/18 05:28:37;;;;;;;34.57;22.63;;;1.00;99.90;;;;;;5130434;27;20196;-64
2024/01/18 05:31:05;;;;;;;38.17;24.23;;;1.00;99.90;;;;;;5130634;27;20200;-64
2024/01/18 05:33:34;;;;;;;36.70;26.13;;;0.90;99.90;;;;;;5124270;27;20256;-62
2024/01/18 05:36:04;;;;;;;43.07;26.47;;;0.90;99.90;;;;;;5109870;28;20206;-65
2024/01/18 05:38:33;;;;;;;43.27;25.83;;;0.90;99.90;;;;;;5109533;28;20223;-64
2024/01/18 05:41:06;;;;;;;40.17;25.27;;;0.80;99.90;;;;;;5109538;28;20227;-65
2024/01/18 05:43:34;;;;;;;42.17;25.97;;;0.80;99.90;;;;;;5109849;28;20210;-63
2024/01/18 05:46:03;;;;;;;46.37;27.60;;;0.80;99.90;;;;;;5109813;28;20207;-65
2024/01/18 05:48:31;;;;;;;50.50;27.40;;;0.90;99.90;;;;;;5109256;28;20238;-64
2024/01/18 05:50:59;;;;;;;48.43;28.37;;;0.90;99.90;;;;;;5109604;28;20199;-64
2024/01/18 05:53:29;;;;;;;45.93;29.10;;;0.90;99.90;;;;;;5109550;28;20192;-65
2024/01/18 05:55:59;;;;;;;42.23;27.07;;;1.00;99.90;;;;;;5091044;28;20200;-65
2024/01/18 05:58:30;;;;;;;42.67;27.50;;;1.00;99.90;;;;;;5109162;28;20195;-65
2024/01/18 06:00:59;;;;;;;47.20;27.87;;;1.00;99.90;;;;;;5109274;28;20698;-63
2024/01/18 06:03:28;;;;;;;43.40;28.30;;;1.00;99.90;;;;;;5109095;28;20253;-63
2024/01/18 06:05:58;;;;;;;47.43;27.53;;;1.00;99.90;;;;;;5109249;28;20199;-65
2024/01/18 06:08:27;;;;;;;47.07;27.97;;;0.90;99.90;;;;;;5108945;28;20203;-64
2024/01/18 06:10:56;;;;;;;49.57;27.87;;;0.80;99.90;;;;;;5109319;28;20311;-65
2024/01/18 06:13:34;;;;;;;52.17;28.77;;;0.80;99.90;;;;;;5109465;28;20679;-65
2024/01/18 06:16:11;;;;;;;53.50;29.90;;;0.70;99.90;;;;;;5109348;28;20223;-65
2024/01/18 06:18:42;;;;;;;58.20;30.83;;;0.80;99.90;;;;;;5109159;28;20933;-65
2024/01/18 06:21:11;;;;;;;53.13;30.53;;;0.80;99.90;;;;;;5109158;28;20195;-66
2024/01/18 06:23:41;;;;;;;54.60;29.67;;;0.90;99.90;;;;;;5109329;28;20204;-65
2024/01/18 06:26:11;;;;;;;55.43;31.03;;;1.00;99.90;;;;;;5109120;28;20214;-64
2024/01/18 06:28:40;;;;;;;62.73;30.37;;;1.00;99.90;;;;;;5109171;28;20588;-65
2024/01/18 06:31:08;;;;;;;53.50;30.80;;;1.00;99.90;;;;;;5109108;28;20230;-64
2024/01/18 06:33:37;;;;;;;49.90;29.93;;;1.10;99.90;;;;;;5109052;28;20211;-63
2024/01/18 06:36:08;;;;;;;54.27;30.03;;;1.00;99.90;;;;;;5109013;28;20213;-63
2024/01/18 06:38:36;;;;;;;45.80;28.87;;;0.90;99.90;;;;;;5108867;28;20257;-64
2024/01/18 06:41:05;;;;;;;51.90;30.20;;;0.90;99.90;;;;;;5109016;28;20199;-64
2024/01/18 06:43:35;;;;;;;51.37;29.23;;;0.90;99.90;;;;;;5108896;28;20606;-63
2024/01/18 06:46:03;;;;;;;53.47;31.53;;;1.00;99.90;;;;;;5108896;28;20604;-64
2024/01/18 06:48:32;;;;;;;52.10;29.33;;;0.90;99.90;;;;;;5109024;28;20670;-64
2024/01/18 06:51:00;;;;;;;52.60;31.17;;;0.90;99.90;;;;;;5108940;28;20826;-64
2024/01/18 06:53:29;;;;;;;48.37;29.67;;;0.90;99.90;;;;;;5108788;28;20201;-64
2024/01/18 06:55:57;;;;;;;53.17;30.27;;;0.80;99.90;;;;;;5109033;28;20203;-64
2024/01/18 06:58:25;;;;;;;50.93;31.60;;;0.80;99.90;;;;;;5108913;28;20248;-63
2024/01/18 07:00:55;;;;;;;53.17;29.07;;;0.80;99.90;;;;;;5112619;28;20688;-65
2024/01/18 07:03:25;;;;;;;49.13;30.63;;;0.80;99.90;;;;;;5112713;28;20227;-63
2024/01/18 07:05:53;;;;;;;50.40;29.17;;;0.80;99.90;;;;;;5113291;28;20569;-66
2024/01/18 07:08:22;;;;;;;53.67;30.67;;;0.80;99.90;;;;;;5112982;28;20992;-65
2024/01/18 07:10:50;;;;;;;52.67;31.40;;;0.70;99.90;;;;;;5122612;27;20191;-65
2024/01/18 07:13:18;;;;;;;57.93;33.27;;;0.60;99.90;;;;;;5133318;27;20199;-66
2024/01/18 07:15:47;;;;;;;55.03;31.60;;;0.70;99.90;;;;;;5133093;27;20198;-63
2024/01/18 07:18:16;;;;;;;53.40;31.20;;;0.70;99.90;;;;;;5133061;27;20244;-65
2024/01/18 07:20:45;;;;;;;56.50;30.67;;;0.70;99.90;;;;;;5133251;27;20198;-63
2024/01/18 07:23:14;;;;;;;54.07;33.87;;;0.60;99.90;;;;;;5133072;27;20318;-65
2024/01/18 07:25:43;;;;;;;55.30;31.80;;;0.70;99.90;;;;;;5133192;27;20318;-65
2024/01/18 07:28:11;;;;;;;59.30;33.20;;;0.70;99.90;;;;;;5132850;27;20289;-64
2024/01/18 07:30:39;;;;;;;61.47;34.90;;;0.70;99.90;;;;;;5132811;27;20249;-64
2024/01/18 07:33:08;;;;;;;65.93;38.23;;;0.80;99.90;;;;;;5132760;27;20205;-64
2024/01/18 07:35:38;;;;;;;69.87;39.07;;;0.80;99.90;;;;;;5132555;27;20691;-63
2024/01/18 07:38:06;;;;;;;81.33;42.13;;;0.80;99.90;;;;;;5132531;27;20235;-64
2024/01/18 07:40:34;;;;;;;63.80;37.83;;;0.70;99.90;;;;;;5132695;27;20225;-64
2024/01/18 07:43:02;;;;;;;71.03;39.20;;;0.70;99.90;;;;;;5132591;27;20267;-63
2024/01/18 07:45:31;;;;;;;68.33;41.23;;;0.60;99.90;;;;;;5132668;27;20230;-65
2024/01/18 07:48:00;;;;;;;70.67;39.93;;;0.70;99.90;;;;;;5132895;27;20191;-64
2024/01/18 07:50:28;;;;;;;66.50;38.87;;;0.70;99.90;;;;;;5132744;27;20221;-63
2024/01/18 07:53:02;;;;;;;66.70;35.23;;;0.80;99.90;;;;;;5132852;27;20699;-63
2024/01/18 07:55:31;;;;;;;52.63;31.17;;;0.80;99.90;;;;;;5132540;27;20293;-64
2024/01/18 07:58:00;;;;;;;53.07;31.23;;;0.90;99.90;;;;;;5132590;27;20292;-64
2024/01/18 08:00:28;;;;;;;56.60;31.40;;;1.00;99.90;;;;;;5132596;27;20203;-65
2024/01/18 08:02:57;;;;;;;61.17;33.07;;;1.00;99.90;;;;;;5132326;27;20222;-65
2024/01/18 08:05:27;;;;;;;56.43;31.43;;;1.10;99.90;;;;;;5132403;27;20652;-63
2024/01/18 08:07:55;;;;;;;50.57;31.47;;;1.20;99.90;;;;;;5132472;27;20198;-66
2024/01/18 08:10:26;;;;;;;55.27;30.87;;;1.20;99.90;;;;;;5131809;27;20627;-65
2024/01/18 08:12:54;;;;;;;48.20;29.13;;;1.20;99.90;;;;;;5132755;27;20200;-64
2024/01/18 08:15:22;;;;;;;52.63;30.80;;;1.40;99.90;;;;;;5132754;27;20220;-64
2024/01/18 08:17:51;;;;;;;54.53;31.33;;;1.60;99.90;;;;;;5132217;27;20191;-65
2024/01/18 08:20:19;;;;;;;48.80;30.53;;;1.80;99.90;;;;;;5132250;27;20188;-66
2024/01/18 08:22:49;;;;;;;46.87;28.43;;;2.00;99.90;;;;;;5131910;27;20587;-66
2024/01/18 08:25:18;;;;;;;52.20;29.97;;;2.10;99.90;;;;;;5131943;27;20193;-66
2024/01/18 08:27:47;;;;;;;63.97;38.77;;;2.10;99.50;;;;;;5131947;27;20239;-66
2024/01/18 08:30:16;;;;;;;57.20;35.30;;;2.10;99.90;;;;;;5131473;27;20729;-65
2024/01/18 08:32:45;;;;;;;55.23;29.47;;;2.00;99.90;;;;;;5131918;27;20206;-66
2024/01/18 08:35:13;;;;;;;46.03;29.07;;;1.90;99.90;;;;;;5131367;27;20252;-64
2024/01/18 08:37:41;;;;;;;38.50;21.13;;;1.80;99.90;;;;;;5131345;27;20238;-64
2024/01/18 08:40:12;;;;;;;36.73;20.87;;;1.50;99.90;;;;;;5131552;27;20201;-64
2024/01/18 08:42:45;;;;;;;29.07;18.07;;;1.60;99.90;;;;;;5131697;27;20199;-64
2024/01/18 08:45:15;;;;;;;36.03;20.00;;;1.60;99.90;;;;;;5131542;27;20204;-64
2024/01/18 08:47:44;;;;;;;26.23;17.00;;;1.70;99.90;;;;;;5131337;27;20195;-65
2024/01/18 08:50:13;;;;;;;38.17;22.20;;;1.60;99.90;;;;;;5131068;27;20191;-65
2024/01/18 08:52:43;;;;;;;28.43;16.63;;;1.60;99.90;;;;;;5131288;27;20203;-63
2024/01/18 08:55:11;;;;;;;24.87;15.80;;;1.50;99.90;;;;;;5131264;27;20222;-65
2024/01/18 08:57:39;;;;;;;29.30;18.13;;;1.60;99.90;;;;;;5131205;27;20236;-64
2024/01/18 09:00:13;;;;;;;27.90;17.70;;;1.70;99.90;;;;;;5130924;27;20231;-65
2024/01/18 09:02:43;;;;;;;29.60;16.97;;;1.70;99.90;;;;;;5131065;27;20199;-65
2024/01/18 09:05:11;;;;;;;28.00;15.87;;;1.70;99.90;;;;;;5130853;27;20198;-62
2024/01/18 09:07:40;;;;;;;27.53;17.30;;;1.70;99.90;;;;;;5130796;27;20188;-65
2024/01/18 09:10:09;;;;;;;44.27;23.67;;;1.70;99.90;;;;;;5130797;27;20278;-65
2024/01/18 09:12:38;;;;;;;31.80;17.53;;;1.80;99.90;;;;;;5130839;27;20236;-64
2024/01/18 09:15:07;;;;;;;32.50;17.33;;;1.80;99.90;;;;;;5130838;27;20683;-65
2024/01/18 09:17:35;;;;;;;27.77;17.30;;;1.80;99.90;;;;;;5130871;27;20301;-66
2024/01/18 09:20:07;;;;;;;27.07;17.87;;;1.80;99.90;;;;;;5130972;27;20230;-64
2024/01/18 09:22:35;;;;;;;27.00;16.73;;;2.10;99.90;;;;;;5130150;27;20231;-65
2024/01/18 09:25:04;;;;;;;30.70;18.80;;;2.10;99.90;;;;;;5130821;27;20226;-62
2024/01/18 09:27:32;;;;;;;25.27;16.17;;;2.10;99.90;;;;;;5130908;27;20195;-65
2024/01/18 09:30:01;;;;;;;34.47;17.77;;;2.00;99.90;;;;;;5130444;27;20279;-64
2024/01/18 09:32:29;;;;;;;29.27;16.83;;;1.90;99.90;;;;;;5130533;27;20199;-64
2024/01/18 09:34:57;;;;;;;29.03;15.97;;;2.00;99.90;;;;;;5130373;27;20291;-65
2024/01/18 09:37:28;;;;;;;30.73;16.90;;;2.00;99.90;;;;;;5130189;27;20219;-63
2024/01/18 09:39:57;;;;;;;27.97;16.30;;;2.10;99.90;;;;;;5130322;27;20191;-64
2024/01/18 09:42:32;;;;;;;28.63;15.60;;;2.10;99.90;;;;;;5130057;27;20643;-64
2024/01/18 09:45:05;;;;;;;25.10;15.40;;;2.10;99.90;;;;;;5130224;27;20211;-65
2024/01/18 09:47:33;;;;;;;26.40;16.83;;;2.20;99.90;;;;;;5130217;27;20192;-65
2024/01/18 09:50:03;;;;;;;25.47;16.07;;;2.00;99.90;;;;;;5130185;27;20195;-64
2024/01/18 09:52:33;;;;;;;26.17;15.93;;;2.00;99.90;;;;;;5130011;27;20193;-66
2024/01/18 09:55:01;;;;;;;26.13;15.90;;;2.10;99.90;;;;;;5129971;27;20266;-65
2024/01/18 09:57:34;;;;;;;24.80;14.97;;;2.00;99.90;;;;;;5130010;27;20202;-63
2024/01/18 10:00:04;;;;;;;23.37;14.90;;;2.00;99.90;;;;;;5111586;27;20199;-65
2024/01/18 10:02:38;;;;;;;27.13;16.43;;;1.90;99.90;;;;;;5130238;27;20275;-64
2024/01/18 10:05:08;;;;;;;27.87;15.37;;;1.90;99.90;;;;;;5129821;27;20216;-63
2024/01/18 10:07:38;;;;;;;25.47;15.73;;;1.80;99.90;;;;;;5129795;27;20198;-65
2024/01/18 10:10:12;;;;;;;24.20;15.47;;;1.80;99.90;;;;;;5129699;27;20190;-64
2024/01/18 10:12:42;;;;;;;27.30;15.37;;;1.70;99.90;;;;;;5129886;27;20199;-65
2024/01/18 10:15:11;;;;;;;28.77;15.57;;;1.70;99.90;;;;;;5129830;27;20637;-64
2024/01/18 10:17:39;;;;;;;26.50;16.07;;;1.70;99.90;;;;;;5129707;27;20188;-65
2024/01/18 10:20:13;;;;;;;28.57;16.70;;;1.70;99.90;;;;;;5129575;27;20691;-65
2024/01/18 10:22:43;;;;;;;25.87;14.27;;;1.70;99.90;;;;;;5129579;27;20190;-65
2024/01/18 10:25:14;;;;;;;24.97;13.93;;;1.60;99.90;;;;;;5129531;27;20767;-66
2024/01/18 10:27:43;;;;;;;24.83;14.37;;;1.70;99.90;;;;;;5129632;27;20201;-63
2024/01/18 10:30:12;;;;;;;28.83;14.43;;;1.70;99.90;;;;;;5129493;27;20225;-65
2024/01/18 10:32:41;;;;;;;28.80;15.63;;;1.80;99.90;;;;;;5129428;27;20195;-66
2024/01/18 10:35:20;;;;;;;36.30;17.10;;;1.90;99.90;;;;;;5128933;27;20195;-64
2024/01/18 10:38:00;;;;;;;21.07;12.63;;;1.90;99.90;;;;;;5129169;27;20601;-65
2024/01/18 10:40:31;;;;;;;22.13;14.13;;;2.00;99.90;;;;;;5129378;28;20203;-65
2024/01/18 10:42:59;;;;;;;26.93;13.27;;;2.00;99.90;;;;;;5129334;28;20189;-62
2024/01/18 10:45:31;;;;;;;26.00;14.60;;;2.10;99.90;;;;;;5129097;28;20933;-63
2024/01/18 10:48:00;;;;;;;19.80;12.00;;;2.20;99.90;;;;;;5129118;28;20202;-63
2024/01/18 10:50:31;;;;;;;20.97;11.83;;;2.20;99.90;;;;;;5129222;28;20616;-62
2024/01/18 10:53:01;;;;;;;21.30;12.63;;;2.20;99.90;;;;;;5129113;28;20199;-60
2024/01/18 10:55:30;;;;;;;18.23;11.77;;;2.30;99.90;;;;;;5129391;28;20252;-62
2024/01/18 10:57:59;;;;;;;20.53;11.80;;;2.30;99.90;;;;;;5124879;27;20196;-64
2024/01/18 11:00:27;;;;;;;15.50;10.70;;;2.40;99.90;;;;;;5129134;28;20250;-64
2024/01/18 11:02:58;;;;;;;16.57;10.97;;;2.50;99.90;;;;;;5110398;28;20197;-66
2024/01/18 11:05:27;;;;;;;17.97;10.70;;;2.40;99.90;;;;;;5108468;28;20219;-63
2024/01/18 11:07:56;;;;;;;18.83;10.47;;;2.50;99.90;;;;;;5108466;28;20202;-64
2024/01/18 11:10:26;;;;;;;14.87;9.63;;;2.40;99.90;;;;;;5108604;28;20204;-64
2024/01/18 11:12:54;;;;;;;15.87;9.97;;;2.50;99.90;;;;;;5108622;28;20195;-64
2024/01/18 11:15:23;;;;;;;14.13;9.37;;;2.50;99.90;;;;;;5108444;28;20192;-62
2024/01/18 11:17:52;;;;;;;14.43;9.13;;;2.50;99.90;;;;;;5108630;28;20196;-62
2024/01/18 11:20:20;;;;;;;15.40;9.33;;;2.50;99.90;;;;;;5108214;28;20201;-64
2024/01/18 11:22:49;;;;;;;13.70;9.70;;;2.50;99.90;;;;;;5108496;28;20281;-64
2024/01/18 11:25:22;;;;;;;16.07;9.43;;;2.50;99.90;;;;;;5108277;28;20243;-63
2024/01/18 11:27:52;;;;;;;13.00;9.17;;;2.50;99.90;;;;;;5108467;28;20200;-65
2024/01/18 11:30:34;;;;;;;11.87;8.33;;;2.40;99.90;;;;;;5108366;28;20201;-64
2024/01/18 11:33:04;;;;;;;16.37;9.60;;;2.50;99.90;;;;;;5108154;28;20200;-64
2024/01/18 11:35:34;;;;;;;17.03;9.87;;;2.50;99.90;;;;;;5108291;28;20198;-65
2024/01/18 11:38:19;;;;;;;13.53;8.83;;;2.50;99.90;;;;;;5108182;28;20333;-65
2024/01/18 11:40:50;;;;;;;13.00;8.67;;;2.60;99.90;;;;;;5108392;28;20218;-65
2024/01/18 11:43:21;;;;;;;12.57;8.23;;;2.60;99.90;;;;;;5108397;28;20238;-64
2024/01/18 11:45:50;;;;;;;15.53;9.17;;;2.50;99.90;;;;;;5116465;27;20241;-64
2024/01/18 11:48:19;;;;;;;11.07;7.77;;;2.70;99.90;;;;;;5132751;27;20670;-64
2024/01/18 11:50:48;;;;;;;13.10;6.70;;;2.70;98.60;;;;;;5132672;27;20194;-65
2024/01/18 11:53:19;;;;;;;12.23;7.43;;;2.60;99.10;;;;;;5132595;27;20203;-64
2024/01/18 11:55:50;;;;;;;11.93;7.77;;;2.70;97.90;;;;;;5132390;27;20726;-65
2024/01/18 11:58:20;;;;;;;11.27;7.07;;;2.70;97.70;;;;;;5132164;27;20239;-64
2024/01/18 12:00:49;;;;;;;11.53;7.37;;;2.70;97.70;;;;;;5132233;27;20736;-63
2024/01/18 12:03:18;;;;;;;16.30;10.90;;;2.80;97.00;;;;;;5132185;27;20192;-64
2024/01/18 12:05:47;;;;;;;14.10;7.20;;;2.90;95.90;;;;;;5131945;27;20224;-65
2024/01/18 12:08:16;;;;;;;14.37;8.17;;;3.00;95.80;;;;;;5131908;27;20190;-65
2024/01/18 12:10:45;;;;;;;12.33;7.70;;;3.10;95.80;;;;;;5131988;27;20677;-65
2024/01/18 12:13:15;;;;;;;14.93;7.47;;;3.20;95.50;;;;;;5132119;27;20195;-65
2024/01/18 12:15:45;;;;;;;16.03;7.80;;;3.20;92.80;;;;;;5131806;27;20212;-65
2024/01/18 12:18:14;;;;;;;22.80;12.50;;;3.20;93.10;;;;;;5131656;27;20213;-64
2024/01/18 12:20:43;;;;;;;14.70;7.83;;;3.30;92.10;;;;;;5131661;27;20195;-64
2024/01/18 12:23:15;;;;;;;12.53;7.43;;;3.30;92.40;;;;;;5131829;27;20674;-65
2024/01/18 12:25:44;;;;;;;14.70;7.17;;;3.40;92.60;;;;;;5131609;27;20650;-65
2024/01/18 12:28:12;;;;;;;10.67;7.57;;;3.60;91.70;;;;;;5131700;27;20300;-64
2024/01/18 12:30:42;;;;;;;8.40;6.83;;;3.60;90.00;;;;;;5131706;27;20196;-64
2024/01/18 12:33:14;;;;;;;14.03;7.10;;;3.70;89.10;;;;;;5131437;27;20200;-64
2024/01/18 12:35:46;;;;;;;15.37;7.47;;;3.80;86.30;;;;;;5131463;27;20196;-65
2024/01/18 12:38:14;;;;;;;14.17;8.00;;;3.80;86.90;;;;;;5130940;27;20227;-65
2024/01/18 12:40:43;;;;;;;11.93;7.60;;;3.80;86.00;;;;;;5131358;27;20189;-63
2024/01/18 12:43:11;;;;;;;13.20;7.87;;;3.60;86.50;;;;;;5131224;27;20200;-65
2024/01/18 12:45:42;;;;;;;8.37;6.17;;;3.50;85.30;;;;;;5131115;27;20220;-64
2024/01/18 12:48:12;;;;;;;9.57;6.10;;;3.50;85.00;;;;;;5131355;27;20199;-64